sensor_id;sensor_type;location;lat;lon;timestamp;P1;durP1;ratioP1;P2;durP2;ratioP2
78987;SDS011;74752;44.786;37.680;2024-03-25T00:01:15;23.90;;;12.00;;
78987;SDS011;74752;44.786;37.680;2024-03-25T00:02:18;25.60;;;11.80;;
78987;SDS011;74752;44.786;37.680;2024-03-25T00:03:21;36.28;;;12.25;;
78987;SDS011;74752;44.786;37.680;2024-03-25T00:04:24;21.42;;;11.15;;
78987;SDS011;74752;44.786;37.680;2024-03-25T00:05:27;20.05;;;11.30;;
78987;SDS011;74752;44.786;37.680;2024-03-25T00:06:30;23.25;;;11.27;;
78987;SDS011;74752;44.786;37.680;2024-03-25T00:07:36;21.50;;;10.82;;
78987;SDS011;74752;44.786;37.680;2024-03-25T00:08:39;22.00;;;9.48;;
78987;SDS011;74752;44.786;37.680;2024-03-25T00:11:35;18.63;;;9.45;;
78987;SDS011;74752;44.786;37.680;2024-03-25T00:12:37;28.00;;;9.25;;
78987;SDS011;74752;44.786;37.680;2024-03-25T00:13:41;19.92;;;9.85;;
78987;SDS011;74752;44.786;37.680;2024-03-25T00:14:43;20.58;;;8.18;;
78987;SDS011;74752;44.786;37.680;2024-03-25T00:15:45;18.52;;;8.32;;
78987;SDS011;74752;44.786;37.680;2024-03-25T00:16:49;15.88;;;7.45;;
78987;SDS011;74752;44.786;37.680;2024-03-25T00:17:52;22.25;;;8.77;;
78987;SDS011;74752;44.786;37.680;2024-03-25T00:22:40;21.23;;;8.70;;
78987;SDS011;74752;44.786;37.680;2024-03-25T00:23:43;18.80;;;8.25;;
78987;SDS011;74752;44.786;37.680;2024-03-25T00:24:45;19.42;;;8.63;;
78987;SDS011;74752;44.786;37.680;2024-03-25T00:25:54;21.63;;;8.90;;
78987;SDS011;74752;44.786;37.680;2024-03-25T00:26:57;24.08;;;9.50;;
78987;SDS011;74752;44.786;37.680;2024-03-25T00:28:01;19.45;;;8.32;;
78987;SDS011;74752;44.786;37.680;2024-03-25T00:29:05;24.70;;;8.98;;
78987;SDS011;74752;44.786;37.680;2024-03-25T00:30:11;18.65;;;9.48;;
78987;SDS011;74752;44.786;37.680;2024-03-25T00:31:18;18.52;;;7.70;;
78987;SDS011;74752;44.786;37.680;2024-03-25T00:32:31;19.83;;;8.30;;
78987;SDS011;74752;44.786;37.680;2024-03-25T00:33:34;20.02;;;9.18;;
78987;SDS011;74752;44.786;37.680;2024-03-25T00:34:37;20.58;;;8.57;;
78987;SDS011;74752;44.786;37.680;2024-03-25T00:35:42;28.60;;;9.50;;
78987;SDS011;74752;44.786;37.680;2024-03-25T00:36:47;19.33;;;8.77;;
78987;SDS011;74752;44.786;37.680;2024-03-25T00:39:18;18.40;;;8.32;;
78987;SDS011;74752;44.786;37.680;2024-03-25T00:40:21;23.00;;;9.60;;
78987;SDS011;74752;44.786;37.680;2024-03-25T00:41:24;39.75;;;8.35;;
78987;SDS011;74752;44.786;37.680;2024-03-25T00:42:26;23.55;;;8.30;;
78987;SDS011;74752;44.786;37.680;2024-03-25T00:43:30;15.38;;;8.43;;
78987;SDS011;74752;44.786;37.680;2024-03-25T00:46:03;30.13;;;8.95;;
78987;SDS011;74752;44.786;37.680;2024-03-25T00:48:35;21.23;;;8.23;;
78987;SDS011;74752;44.786;37.680;2024-03-25T00:50:43;14.18;;;6.68;;
78987;SDS011;74752;44.786;37.680;2024-03-25T00:51:45;15.88;;;6.93;;
78987;SDS011;74752;44.786;37.680;2024-03-25T00:52:48;18.42;;;8.60;;
78987;SDS011;74752;44.786;37.680;2024-03-25T00:53:51;20.90;;;7.47;;
78987;SDS011;74752;44.786;37.680;2024-03-25T00:54:54;15.00;;;7.47;;
78987;SDS011;74752;44.786;37.680;2024-03-25T00:56:05;21.75;;;8.02;;
78987;SDS011;74752;44.786;37.680;2024-03-25T00:57:10;17.58;;;8.23;;
78987;SDS011;74752;44.786;37.680;2024-03-25T00:58:14;22.13;;;7.95;;
78987;SDS011;74752;44.786;37.680;2024-03-25T00:59:17;19.30;;;8.27;;
78987;SDS011;74752;44.786;37.680;2024-03-25T01:00:31;21.00;;;7.40;;
78987;SDS011;74752;44.786;37.680;2024-03-25T01:04:34;19.33;;;6.35;;
78987;SDS011;74752;44.786;37.680;2024-03-25T01:05:36;16.25;;;7.43;;
78987;SDS011;74752;44.786;37.680;2024-03-25T01:06:42;18.95;;;6.85;;
78987;SDS011;74752;44.786;37.680;2024-03-25T01:12:11;16.40;;;6.75;;
78987;SDS011;74752;44.786;37.680;2024-03-25T01:13:13;14.27;;;6.85;;
78987;SDS011;74752;44.786;37.680;2024-03-25T01:14:16;15.23;;;7.32;;
78987;SDS011;74752;44.786;37.680;2024-03-25T01:15:20;22.00;;;6.85;;
78987;SDS011;74752;44.786;37.680;2024-03-25T01:16:24;17.30;;;7.28;;
78987;SDS011;74752;44.786;37.680;2024-03-25T01:17:27;15.50;;;6.93;;
78987;SDS011;74752;44.786;37.680;2024-03-25T01:18:30;21.58;;;7.80;;
78987;SDS011;74752;44.786;37.680;2024-03-25T01:19:33;17.10;;;7.88;;
78987;SDS011;74752;44.786;37.680;2024-03-25T01:20:35;14.27;;;7.00;;
78987;SDS011;74752;44.786;37.680;2024-03-25T01:21:38;15.25;;;7.40;;
78987;SDS011;74752;44.786;37.680;2024-03-25T01:24:18;15.65;;;7.22;;
78987;SDS011;74752;44.786;37.680;2024-03-25T01:25:22;17.42;;;6.93;;
78987;SDS011;74752;44.786;37.680;2024-03-25T01:26:25;13.32;;;6.05;;
78987;SDS011;74752;44.786;37.680;2024-03-25T01:27:32;14.15;;;6.53;;
78987;SDS011;74752;44.786;37.680;2024-03-25T01:30:02;13.07;;;6.40;;
78987;SDS011;74752;44.786;37.680;2024-03-25T01:31:05;16.23;;;7.22;;
78987;SDS011;74752;44.786;37.680;2024-03-25T01:32:08;14.60;;;6.38;;
78987;SDS011;74752;44.786;37.680;2024-03-25T01:33:13;13.32;;;5.97;;
78987;SDS011;74752;44.786;37.680;2024-03-25T01:34:15;21.83;;;8.00;;
78987;SDS011;74752;44.786;37.680;2024-03-25T01:35:19;12.65;;;6.30;;
78987;SDS011;74752;44.786;37.680;2024-03-25T01:36:22;13.73;;;6.22;;
78987;SDS011;74752;44.786;37.680;2024-03-25T01:37:25;14.20;;;6.97;;
78987;SDS011;74752;44.786;37.680;2024-03-25T01:38:28;12.55;;;7.10;;
78987;SDS011;74752;44.786;37.680;2024-03-25T01:39:31;15.48;;;6.13;;
78987;SDS011;74752;44.786;37.680;2024-03-25T01:40:34;15.00;;;6.55;;
78987;SDS011;74752;44.786;37.680;2024-03-25T01:41:36;17.55;;;6.43;;
78987;SDS011;74752;44.786;37.680;2024-03-25T01:44:11;16.65;;;6.50;;
78987;SDS011;74752;44.786;37.680;2024-03-25T01:45:13;17.73;;;6.85;;
78987;SDS011;74752;44.786;37.680;2024-03-25T01:47:01;13.75;;;5.72;;
78987;SDS011;74752;44.786;37.680;2024-03-25T01:48:05;11.48;;;6.03;;
78987;SDS011;74752;44.786;37.680;2024-03-25T01:49:10;15.02;;;6.45;;
78987;SDS011;74752;44.786;37.680;2024-03-25T01:53:12;13.20;;;5.95;;
78987;SDS011;74752;44.786;37.680;2024-03-25T01:54:35;16.17;;;6.20;;
78987;SDS011;74752;44.786;37.680;2024-03-25T01:55:42;14.63;;;5.88;;
78987;SDS011;74752;44.786;37.680;2024-03-25T01:56:49;20.40;;;7.00;;
78987;SDS011;74752;44.786;37.680;2024-03-25T01:57:53;15.98;;;6.20;;
78987;SDS011;74752;44.786;37.680;2024-03-25T02:00:26;21.05;;;7.18;;
78987;SDS011;74752;44.786;37.680;2024-03-25T02:01:29;16.55;;;6.45;;
78987;SDS011;74752;44.786;37.680;2024-03-25T02:02:33;19.42;;;6.72;;
78987;SDS011;74752;44.786;37.680;2024-03-25T02:06:36;13.65;;;5.95;;
78987;SDS011;74752;44.786;37.680;2024-03-25T02:07:42;14.95;;;5.70;;
78987;SDS011;74752;44.786;37.680;2024-03-25T02:08:45;11.48;;;5.35;;
78987;SDS011;74752;44.786;37.680;2024-03-25T02:11:18;15.45;;;5.32;;
78987;SDS011;74752;44.786;37.680;2024-03-25T02:14:15;17.23;;;6.55;;
78987;SDS011;74752;44.786;37.680;2024-03-25T02:15:20;15.55;;;7.68;;
78987;SDS011;74752;44.786;37.680;2024-03-25T02:16:25;13.48;;;6.18;;
78987;SDS011;74752;44.786;37.680;2024-03-25T02:17:27;13.70;;;6.85;;
78987;SDS011;74752;44.786;37.680;2024-03-25T02:18:40;13.38;;;6.28;;
78987;SDS011;74752;44.786;37.680;2024-03-25T02:19:43;14.07;;;6.60;;
78987;SDS011;74752;44.786;37.680;2024-03-25T02:20:45;16.10;;;7.05;;
78987;SDS011;74752;44.786;37.680;2024-03-25T02:21:50;14.43;;;6.38;;
78987;SDS011;74752;44.786;37.680;2024-03-25T02:22:52;10.90;;;5.50;;
78987;SDS011;74752;44.786;37.680;2024-03-25T02:23:55;15.68;;;7.18;;
78987;SDS011;74752;44.786;37.680;2024-03-25T02:25:03;12.48;;;6.07;;
78987;SDS011;74752;44.786;37.680;2024-03-25T02:26:10;17.35;;;7.88;;
78987;SDS011;74752;44.786;37.680;2024-03-25T02:27:13;21.83;;;7.03;;
78987;SDS011;74752;44.786;37.680;2024-03-25T02:28:20;16.13;;;7.85;;
78987;SDS011;74752;44.786;37.680;2024-03-25T02:29:23;17.65;;;6.45;;
78987;SDS011;74752;44.786;37.680;2024-03-25T02:30:25;19.17;;;6.32;;
78987;SDS011;74752;44.786;37.680;2024-03-25T02:31:27;22.13;;;7.57;;
78987;SDS011;74752;44.786;37.680;2024-03-25T02:36:04;18.42;;;6.82;;
78987;SDS011;74752;44.786;37.680;2024-03-25T02:37:07;17.23;;;6.82;;
78987;SDS011;74752;44.786;37.680;2024-03-25T02:38:10;19.05;;;6.90;;
78987;SDS011;74752;44.786;37.680;2024-03-25T02:39:23;17.95;;;6.43;;
78987;SDS011;74752;44.786;37.680;2024-03-25T02:40:26;14.55;;;6.05;;
78987;SDS011;74752;44.786;37.680;2024-03-25T02:41:30;21.45;;;6.63;;
78987;SDS011;74752;44.786;37.680;2024-03-25T02:44:02;14.75;;;6.85;;
78987;SDS011;74752;44.786;37.680;2024-03-25T02:46:33;20.65;;;7.00;;
78987;SDS011;74752;44.786;37.680;2024-03-25T02:47:36;15.50;;;6.72;;
78987;SDS011;74752;44.786;37.680;2024-03-25T02:48:50;24.35;;;7.15;;
78987;SDS011;74752;44.786;37.680;2024-03-25T02:52:11;18.35;;;6.63;;
78987;SDS011;74752;44.786;37.680;2024-03-25T02:57:43;9.95;;;5.28;;
78987;SDS011;74752;44.786;37.680;2024-03-25T02:58:53;19.00;;;6.38;;
78987;SDS011;74752;44.786;37.680;2024-03-25T03:00:00;18.20;;;6.60;;
78987;SDS011;74752;44.786;37.680;2024-03-25T03:01:06;16.23;;;5.97;;
78987;SDS011;74752;44.786;37.680;2024-03-25T03:02:14;14.55;;;7.30;;
78987;SDS011;74752;44.786;37.680;2024-03-25T03:03:17;13.25;;;6.57;;
78987;SDS011;74752;44.786;37.680;2024-03-25T03:04:21;12.25;;;6.47;;
78987;SDS011;74752;44.786;37.680;2024-03-25T03:05:23;16.75;;;6.38;;
78987;SDS011;74752;44.786;37.680;2024-03-25T03:06:26;15.07;;;6.15;;
78987;SDS011;74752;44.786;37.680;2024-03-25T03:07:29;17.95;;;6.70;;
78987;SDS011;74752;44.786;37.680;2024-03-25T03:08:33;13.90;;;7.18;;
78987;SDS011;74752;44.786;37.680;2024-03-25T03:12:56;21.05;;;6.13;;
78987;SDS011;74752;44.786;37.680;2024-03-25T03:14:00;22.08;;;7.03;;
78987;SDS011;74752;44.786;37.680;2024-03-25T03:16:55;21.75;;;7.00;;
78987;SDS011;74752;44.786;37.680;2024-03-25T03:18:00;13.30;;;5.88;;
78987;SDS011;74752;44.786;37.680;2024-03-25T03:19:03;17.52;;;5.55;;
78987;SDS011;74752;44.786;37.680;2024-03-25T03:20:15;14.43;;;5.90;;
78987;SDS011;74752;44.786;37.680;2024-03-25T03:21:17;12.27;;;6.15;;
78987;SDS011;74752;44.786;37.680;2024-03-25T03:22:31;17.15;;;5.45;;
78987;SDS011;74752;44.786;37.680;2024-03-25T03:25:02;10.90;;;5.22;;
78987;SDS011;74752;44.786;37.680;2024-03-25T03:26:05;9.63;;;5.15;;
78987;SDS011;74752;44.786;37.680;2024-03-25T03:27:21;13.02;;;5.03;;
78987;SDS011;74752;44.786;37.680;2024-03-25T03:31:46;12.82;;;4.65;;
78987;SDS011;74752;44.786;37.680;2024-03-25T03:32:48;14.43;;;5.50;;
78987;SDS011;74752;44.786;37.680;2024-03-25T03:33:51;13.93;;;5.45;;
78987;SDS011;74752;44.786;37.680;2024-03-25T03:36:25;11.50;;;4.63;;
78987;SDS011;74752;44.786;37.680;2024-03-25T03:37:28;10.60;;;5.03;;
78987;SDS011;74752;44.786;37.680;2024-03-25T03:38:31;11.07;;;5.07;;
78987;SDS011;74752;44.786;37.680;2024-03-25T03:39:35;14.30;;;5.10;;
78987;SDS011;74752;44.786;37.680;2024-03-25T03:40:40;9.95;;;5.05;;
78987;SDS011;74752;44.786;37.680;2024-03-25T03:41:43;20.52;;;5.78;;
78987;SDS011;74752;44.786;37.680;2024-03-25T03:43:01;9.75;;;5.53;;
78987;SDS011;74752;44.786;37.680;2024-03-25T03:45:34;14.25;;;5.05;;
78987;SDS011;74752;44.786;37.680;2024-03-25T03:47:43;15.90;;;5.60;;
78987;SDS011;74752;44.786;37.680;2024-03-25T03:48:45;10.93;;;4.97;;
78987;SDS011;74752;44.786;37.680;2024-03-25T03:49:57;13.93;;;5.18;;
78987;SDS011;74752;44.786;37.680;2024-03-25T03:51:10;12.90;;;5.60;;
78987;SDS011;74752;44.786;37.680;2024-03-25T03:52:13;12.75;;;4.88;;
78987;SDS011;74752;44.786;37.680;2024-03-25T03:53:20;8.68;;;4.70;;
78987;SDS011;74752;44.786;37.680;2024-03-25T03:54:23;9.45;;;4.97;;
78987;SDS011;74752;44.786;37.680;2024-03-25T03:55:25;9.57;;;5.13;;
78987;SDS011;74752;44.786;37.680;2024-03-25T03:56:28;15.25;;;4.40;;
78987;SDS011;74752;44.786;37.680;2024-03-25T03:57:40;15.70;;;5.95;;
78987;SDS011;74752;44.786;37.680;2024-03-25T03:58:45;8.85;;;4.63;;
78987;SDS011;74752;44.786;37.680;2024-03-25T03:59:47;9.82;;;4.93;;
78987;SDS011;74752;44.786;37.680;2024-03-25T04:00:50;12.70;;;4.50;;
78987;SDS011;74752;44.786;37.680;2024-03-25T04:01:54;8.73;;;3.97;;
78987;SDS011;74752;44.786;37.680;2024-03-25T04:02:57;21.55;;;5.93;;
78987;SDS011;74752;44.786;37.680;2024-03-25T04:04:00;20.30;;;5.32;;
78987;SDS011;74752;44.786;37.680;2024-03-25T04:05:05;14.65;;;4.97;;
78987;SDS011;74752;44.786;37.680;2024-03-25T04:06:14;16.73;;;5.70;;
78987;SDS011;74752;44.786;37.680;2024-03-25T04:07:17;17.92;;;5.45;;
78987;SDS011;74752;44.786;37.680;2024-03-25T04:08:20;19.25;;;6.00;;
78987;SDS011;74752;44.786;37.680;2024-03-25T04:09:23;17.70;;;5.80;;
78987;SDS011;74752;44.786;37.680;2024-03-25T04:10:26;16.98;;;5.78;;
78987;SDS011;74752;44.786;37.680;2024-03-25T04:11:30;14.45;;;5.60;;
78987;SDS011;74752;44.786;37.680;2024-03-25T04:12:33;17.58;;;5.85;;
78987;SDS011;74752;44.786;37.680;2024-03-25T04:13:35;21.10;;;6.07;;
78987;SDS011;74752;44.786;37.680;2024-03-25T04:14:40;23.27;;;6.18;;
78987;SDS011;74752;44.786;37.680;2024-03-25T04:15:43;11.48;;;5.25;;
78987;SDS011;74752;44.786;37.680;2024-03-25T04:16:46;19.35;;;5.95;;
78987;SDS011;74752;44.786;37.680;2024-03-25T04:17:50;15.23;;;5.55;;
78987;SDS011;74752;44.786;37.680;2024-03-25T04:18:53;15.85;;;4.65;;
78987;SDS011;74752;44.786;37.680;2024-03-25T04:19:58;17.02;;;4.60;;
78987;SDS011;74752;44.786;37.680;2024-03-25T04:21:11;11.13;;;5.05;;
78987;SDS011;74752;44.786;37.680;2024-03-25T04:22:15;9.73;;;4.70;;
78987;SDS011;74752;44.786;37.680;2024-03-25T04:23:18;15.07;;;4.05;;
78987;SDS011;74752;44.786;37.680;2024-03-25T04:24:21;14.38;;;4.80;;
78987;SDS011;74752;44.786;37.680;2024-03-25T04:25:25;14.75;;;5.10;;
78987;SDS011;74752;44.786;37.680;2024-03-25T04:26:30;13.50;;;4.90;;
78987;SDS011;74752;44.786;37.680;2024-03-25T04:27:33;15.60;;;5.38;;
78987;SDS011;74752;44.786;37.680;2024-03-25T04:28:36;15.02;;;5.20;;
78987;SDS011;74752;44.786;37.680;2024-03-25T04:29:40;20.98;;;6.78;;
78987;SDS011;74752;44.786;37.680;2024-03-25T04:30:50;29.95;;;5.90;;
78987;SDS011;74752;44.786;37.680;2024-03-25T04:31:55;23.15;;;5.45;;
78987;SDS011;74752;44.786;37.680;2024-03-25T04:33:07;14.30;;;6.20;;
78987;SDS011;74752;44.786;37.680;2024-03-25T04:34:28;24.42;;;5.35;;
78987;SDS011;74752;44.786;37.680;2024-03-25T04:35:31;22.17;;;5.32;;
78987;SDS011;74752;44.786;37.680;2024-03-25T04:36:45;15.30;;;4.55;;
78987;SDS011;74752;44.786;37.680;2024-03-25T04:37:50;22.15;;;5.20;;
78987;SDS011;74752;44.786;37.680;2024-03-25T04:38:53;19.90;;;5.20;;
78987;SDS011;74752;44.786;37.680;2024-03-25T04:39:57;17.35;;;5.80;;
78987;SDS011;74752;44.786;37.680;2024-03-25T04:41:00;79.82;;;12.43;;
78987;SDS011;74752;44.786;37.680;2024-03-25T04:42:03;24.05;;;5.93;;
78987;SDS011;74752;44.786;37.680;2024-03-25T04:43:06;20.88;;;4.85;;
78987;SDS011;74752;44.786;37.680;2024-03-25T04:44:10;16.73;;;4.75;;
78987;SDS011;74752;44.786;37.680;2024-03-25T04:45:13;26.63;;;5.65;;
78987;SDS011;74752;44.786;37.680;2024-03-25T04:46:26;28.27;;;6.13;;
78987;SDS011;74752;44.786;37.680;2024-03-25T04:47:30;20.98;;;5.70;;
78987;SDS011;74752;44.786;37.680;2024-03-25T04:48:33;14.93;;;4.65;;
78987;SDS011;74752;44.786;37.680;2024-03-25T04:49:35;17.58;;;4.63;;
78987;SDS011;74752;44.786;37.680;2024-03-25T04:50:40;13.43;;;4.35;;
78987;SDS011;74752;44.786;37.680;2024-03-25T04:51:43;16.52;;;5.55;;
78987;SDS011;74752;44.786;37.680;2024-03-25T04:52:45;21.08;;;6.25;;
78987;SDS011;74752;44.786;37.680;2024-03-25T04:53:50;18.08;;;5.22;;
78987;SDS011;74752;44.786;37.680;2024-03-25T04:54:53;20.13;;;5.07;;
78987;SDS011;74752;44.786;37.680;2024-03-25T04:55:56;26.50;;;6.30;;
78987;SDS011;74752;44.786;37.680;2024-03-25T04:57:00;28.50;;;6.50;;
78987;SDS011;74752;44.786;37.680;2024-03-25T04:58:03;20.38;;;6.30;;
78987;SDS011;74752;44.786;37.680;2024-03-25T04:59:05;22.80;;;5.80;;
78987;SDS011;74752;44.786;37.680;2024-03-25T05:00:10;20.77;;;5.65;;
78987;SDS011;74752;44.786;37.680;2024-03-25T05:01:13;31.33;;;6.15;;
78987;SDS011;74752;44.786;37.680;2024-03-25T05:02:16;29.90;;;6.18;;
78987;SDS011;74752;44.786;37.680;2024-03-25T05:03:20;23.95;;;6.30;;
78987;SDS011;74752;44.786;37.680;2024-03-25T05:04:23;24.05;;;6.75;;
78987;SDS011;74752;44.786;37.680;2024-03-25T05:05:26;28.88;;;7.50;;
78987;SDS011;74752;44.786;37.680;2024-03-25T05:06:30;21.75;;;7.57;;
78987;SDS011;74752;44.786;37.680;2024-03-25T05:07:33;19.48;;;5.65;;
78987;SDS011;74752;44.786;37.680;2024-03-25T05:08:36;27.38;;;6.50;;
78987;SDS011;74752;44.786;37.680;2024-03-25T05:09:40;23.80;;;5.82;;
78987;SDS011;74752;44.786;37.680;2024-03-25T05:10:43;13.82;;;5.80;;
78987;SDS011;74752;44.786;37.680;2024-03-25T05:11:46;17.35;;;5.97;;
78987;SDS011;74752;44.786;37.680;2024-03-25T05:12:50;14.55;;;6.03;;
78987;SDS011;74752;44.786;37.680;2024-03-25T05:13:53;17.20;;;6.80;;
78987;SDS011;74752;44.786;37.680;2024-03-25T05:14:56;19.02;;;6.28;;
78987;SDS011;74752;44.786;37.680;2024-03-25T05:16:00;15.70;;;4.93;;
78987;SDS011;74752;44.786;37.680;2024-03-25T05:17:04;24.33;;;7.10;;
78987;SDS011;74752;44.786;37.680;2024-03-25T05:18:07;14.43;;;4.95;;
78987;SDS011;74752;44.786;37.680;2024-03-25T05:19:10;12.63;;;4.85;;
78987;SDS011;74752;44.786;37.680;2024-03-25T05:20:13;14.30;;;5.13;;
78987;SDS011;74752;44.786;37.680;2024-03-25T05:21:16;16.02;;;3.97;;
78987;SDS011;74752;44.786;37.680;2024-03-25T05:22:20;14.82;;;4.22;;
78987;SDS011;74752;44.786;37.680;2024-03-25T05:23:23;9.43;;;4.00;;
78987;SDS011;74752;44.786;37.680;2024-03-25T05:24:26;13.55;;;4.57;;
78987;SDS011;74752;44.786;37.680;2024-03-25T05:25:30;12.43;;;4.43;;
78987;SDS011;74752;44.786;37.680;2024-03-25T05:26:33;6.20;;;3.10;;
78987;SDS011;74752;44.786;37.680;2024-03-25T05:27:35;6.93;;;3.50;;
78987;SDS011;74752;44.786;37.680;2024-03-25T05:28:38;6.43;;;3.28;;
78987;SDS011;74752;44.786;37.680;2024-03-25T05:29:41;8.23;;;3.50;;
78987;SDS011;74752;44.786;37.680;2024-03-25T05:30:44;9.13;;;3.67;;
78987;SDS011;74752;44.786;37.680;2024-03-25T05:33:22;6.53;;;3.17;;
78987;SDS011;74752;44.786;37.680;2024-03-25T05:34:25;12.05;;;3.80;;
78987;SDS011;74752;44.786;37.680;2024-03-25T05:35:30;12.73;;;3.53;;
78987;SDS011;74752;44.786;37.680;2024-03-25T05:36:35;14.52;;;5.03;;
78987;SDS011;74752;44.786;37.680;2024-03-25T05:37:37;20.10;;;5.55;;
78987;SDS011;74752;44.786;37.680;2024-03-25T05:38:40;18.50;;;4.15;;
78987;SDS011;74752;44.786;37.680;2024-03-25T05:39:50;20.90;;;5.43;;
78987;SDS011;74752;44.786;37.680;2024-03-25T05:40:54;16.23;;;5.10;;
78987;SDS011;74752;44.786;37.680;2024-03-25T05:41:58;14.77;;;4.38;;
78987;SDS011;74752;44.786;37.680;2024-03-25T05:43:01;11.25;;;4.13;;
78987;SDS011;74752;44.786;37.680;2024-03-25T05:44:14;19.33;;;4.68;;
78987;SDS011;74752;44.786;37.680;2024-03-25T05:45:17;19.08;;;5.00;;
78987;SDS011;74752;44.786;37.680;2024-03-25T05:46:20;12.73;;;4.10;;
78987;SDS011;74752;44.786;37.680;2024-03-25T05:47:23;21.75;;;4.90;;
78987;SDS011;74752;44.786;37.680;2024-03-25T05:48:27;11.77;;;3.58;;
78987;SDS011;74752;44.786;37.680;2024-03-25T05:49:30;12.73;;;3.88;;
78987;SDS011;74752;44.786;37.680;2024-03-25T05:50:33;17.98;;;3.88;;
78987;SDS011;74752;44.786;37.680;2024-03-25T05:51:36;14.18;;;4.47;;
78987;SDS011;74752;44.786;37.680;2024-03-25T05:52:40;11.55;;;3.20;;
78987;SDS011;74752;44.786;37.680;2024-03-25T05:53:43;10.15;;;3.72;;
78987;SDS011;74752;44.786;37.680;2024-03-25T05:54:45;9.32;;;2.88;;
78987;SDS011;74752;44.786;37.680;2024-03-25T05:55:47;8.45;;;2.83;;
78987;SDS011;74752;44.786;37.680;2024-03-25T05:56:51;9.52;;;2.90;;
78987;SDS011;74752;44.786;37.680;2024-03-25T05:57:55;6.95;;;2.50;;
78987;SDS011;74752;44.786;37.680;2024-03-25T05:58:57;10.25;;;3.30;;
78987;SDS011;74752;44.786;37.680;2024-03-25T06:00:01;13.85;;;3.47;;
78987;SDS011;74752;44.786;37.680;2024-03-25T06:01:05;16.65;;;3.45;;
78987;SDS011;74752;44.786;37.680;2024-03-25T06:02:08;6.40;;;3.40;;
78987;SDS011;74752;44.786;37.680;2024-03-25T06:03:11;9.80;;;3.65;;
78987;SDS011;74752;44.786;37.680;2024-03-25T06:04:23;8.75;;;2.58;;
78987;SDS011;74752;44.786;37.680;2024-03-25T06:05:25;7.60;;;2.20;;
78987;SDS011;74752;44.786;37.680;2024-03-25T06:06:28;4.20;;;2.20;;
78987;SDS011;74752;44.786;37.680;2024-03-25T06:07:31;8.07;;;2.60;;
78987;SDS011;74752;44.786;37.680;2024-03-25T06:08:35;8.68;;;2.45;;
78987;SDS011;74752;44.786;37.680;2024-03-25T06:09:40;5.68;;;2.20;;
78987;SDS011;74752;44.786;37.680;2024-03-25T06:10:52;8.98;;;2.50;;
78987;SDS011;74752;44.786;37.680;2024-03-25T06:11:55;3.90;;;1.50;;
78987;SDS011;74752;44.786;37.680;2024-03-25T06:12:57;4.00;;;2.20;;
78987;SDS011;74752;44.786;37.680;2024-03-25T06:14:01;6.90;;;2.38;;
78987;SDS011;74752;44.786;37.680;2024-03-25T06:15:04;5.03;;;2.03;;
78987;SDS011;74752;44.786;37.680;2024-03-25T06:16:08;12.98;;;2.63;;
78987;SDS011;74752;44.786;37.680;2024-03-25T06:17:11;11.77;;;3.33;;
78987;SDS011;74752;44.786;37.680;2024-03-25T06:18:14;8.02;;;2.92;;
78987;SDS011;74752;44.786;37.680;2024-03-25T06:19:18;10.25;;;2.60;;
78987;SDS011;74752;44.786;37.680;2024-03-25T06:20:35;8.82;;;3.30;;
78987;SDS011;74752;44.786;37.680;2024-03-25T06:21:47;14.10;;;4.53;;
78987;SDS011;74752;44.786;37.680;2024-03-25T06:22:55;17.15;;;3.70;;
78987;SDS011;74752;44.786;37.680;2024-03-25T06:24:00;6.97;;;2.88;;
78987;SDS011;74752;44.786;37.680;2024-03-25T06:25:03;12.48;;;3.53;;
78987;SDS011;74752;44.786;37.680;2024-03-25T06:26:07;6.30;;;2.72;;
78987;SDS011;74752;44.786;37.680;2024-03-25T06:27:10;7.38;;;2.35;;
78987;SDS011;74752;44.786;37.680;2024-03-25T06:28:15;6.80;;;2.53;;
78987;SDS011;74752;44.786;37.680;2024-03-25T06:29:18;10.50;;;3.50;;
78987;SDS011;74752;44.786;37.680;2024-03-25T06:30:21;8.48;;;2.70;;
78987;SDS011;74752;44.786;37.680;2024-03-25T06:31:42;13.65;;;3.10;;
78987;SDS011;74752;44.786;37.680;2024-03-25T06:33:04;9.50;;;2.85;;
78987;SDS011;74752;44.786;37.680;2024-03-25T06:34:25;11.95;;;3.10;;
78987;SDS011;74752;44.786;37.680;2024-03-25T06:35:27;5.80;;;2.33;;
78987;SDS011;74752;44.786;37.680;2024-03-25T06:36:30;5.63;;;2.53;;
78987;SDS011;74752;44.786;37.680;2024-03-25T06:37:34;6.45;;;2.70;;
78987;SDS011;74752;44.786;37.680;2024-03-25T06:38:36;6.90;;;2.50;;
78987;SDS011;74752;44.786;37.680;2024-03-25T06:39:40;10.98;;;3.67;;
78987;SDS011;74752;44.786;37.680;2024-03-25T06:40:44;6.38;;;3.13;;
78987;SDS011;74752;44.786;37.680;2024-03-25T06:41:50;15.93;;;3.35;;
78987;SDS011;74752;44.786;37.680;2024-03-25T06:42:53;7.68;;;3.65;;
78987;SDS011;74752;44.786;37.680;2024-03-25T06:43:55;7.53;;;3.13;;
78987;SDS011;74752;44.786;37.680;2024-03-25T06:44:58;6.70;;;2.67;;
78987;SDS011;74752;44.786;37.680;2024-03-25T06:46:01;6.88;;;2.95;;
78987;SDS011;74752;44.786;37.680;2024-03-25T06:47:05;5.68;;;2.70;;
78987;SDS011;74752;44.786;37.680;2024-03-25T06:48:07;7.57;;;2.50;;
78987;SDS011;74752;44.786;37.680;2024-03-25T06:49:11;10.10;;;2.42;;
78987;SDS011;74752;44.786;37.680;2024-03-25T06:50:14;6.68;;;2.60;;
78987;SDS011;74752;44.786;37.680;2024-03-25T06:51:25;6.38;;;2.53;;
78987;SDS011;74752;44.786;37.680;2024-03-25T06:52:28;12.48;;;2.20;;
78987;SDS011;74752;44.786;37.680;2024-03-25T06:53:31;9.50;;;3.42;;
78987;SDS011;74752;44.786;37.680;2024-03-25T06:54:35;6.95;;;2.55;;
78987;SDS011;74752;44.786;37.680;2024-03-25T06:55:56;6.45;;;2.67;;
78987;SDS011;74752;44.786;37.680;2024-03-25T06:57:05;7.63;;;2.40;;
78987;SDS011;74752;44.786;37.680;2024-03-25T06:58:07;4.10;;;2.40;;
78987;SDS011;74752;44.786;37.680;2024-03-25T06:59:10;6.35;;;2.60;;
78987;SDS011;74752;44.786;37.680;2024-03-25T07:00:13;6.80;;;2.58;;
78987;SDS011;74752;44.786;37.680;2024-03-25T07:01:15;5.82;;;2.45;;
78987;SDS011;74752;44.786;37.680;2024-03-25T07:02:17;5.13;;;2.30;;
78987;SDS011;74752;44.786;37.680;2024-03-25T07:03:21;6.32;;;2.30;;
78987;SDS011;74752;44.786;37.680;2024-03-25T07:04:25;6.70;;;2.47;;
78987;SDS011;74752;44.786;37.680;2024-03-25T07:05:27;8.50;;;2.33;;
78987;SDS011;74752;44.786;37.680;2024-03-25T07:06:30;7.43;;;2.50;;
78987;SDS011;74752;44.786;37.680;2024-03-25T07:07:33;8.00;;;2.40;;
78987;SDS011;74752;44.786;37.680;2024-03-25T07:08:36;6.68;;;2.72;;
78987;SDS011;74752;44.786;37.680;2024-03-25T07:09:40;11.32;;;2.80;;
78987;SDS011;74752;44.786;37.680;2024-03-25T07:10:43;6.28;;;2.15;;
78987;SDS011;74752;44.786;37.680;2024-03-25T07:11:46;4.53;;;2.10;;
78987;SDS011;74752;44.786;37.680;2024-03-25T07:12:50;5.63;;;2.30;;
78987;SDS011;74752;44.786;37.680;2024-03-25T07:13:53;6.32;;;2.22;;
78987;SDS011;74752;44.786;37.680;2024-03-25T07:14:56;4.80;;;1.95;;
78987;SDS011;74752;44.786;37.680;2024-03-25T07:16:00;5.40;;;2.13;;
78987;SDS011;74752;44.786;37.680;2024-03-25T07:17:03;7.82;;;1.95;;
78987;SDS011;74752;44.786;37.680;2024-03-25T07:18:15;5.53;;;2.25;;
78987;SDS011;74752;44.786;37.680;2024-03-25T07:19:20;10.00;;;2.53;;
78987;SDS011;74752;44.786;37.680;2024-03-25T07:20:23;6.95;;;1.98;;
78987;SDS011;74752;44.786;37.680;2024-03-25T07:21:26;8.15;;;2.63;;
78987;SDS011;74752;44.786;37.680;2024-03-25T07:22:30;8.38;;;2.80;;